createdAt,value
2022-12-22T00:01:16.892Z,21.98
2022-12-22T00:04:20.679Z,21.35
2022-12-22T00:07:24.531Z,21.48
2022-12-22T00:10:28.490Z,22.25
2022-12-22T00:13:33.702Z,21.77
2022-12-22T00:16:37.881Z,21.92
2022-12-22T00:19:42.263Z,21.70
2022-12-22T00:22:46.074Z,20.77
2022-12-22T00:25:50.185Z,24.08
2022-12-22T00:28:54.827Z,22.77
2022-12-22T00:32:00.477Z,22.05
2022-12-22T00:35:04.633Z,20.33
2022-12-22T00:38:08.689Z,20.70
2022-12-22T00:41:12.264Z,22.05
2022-12-22T00:44:16.294Z,20.58
2022-12-22T00:47:20.150Z,24.15
2022-12-22T00:50:26.683Z,21.35
2022-12-22T00:53:30.474Z,23.45
2022-12-22T00:56:34.501Z,22.30
2022-12-22T00:59:38.142Z,22.35
2022-12-22T01:02:42.630Z,21.02
2022-12-22T01:05:46.773Z,21.77
2022-12-22T01:08:52.081Z,22.77
2022-12-22T01:11:55.800Z,24.10
2022-12-22T01:14:59.607Z,24.73
2022-12-22T01:18:03.432Z,23.88
2022-12-22T01:21:07.917Z,24.48
2022-12-22T01:24:11.657Z,24.63
2022-12-22T01:27:15.327Z,25.85
2022-12-22T01:30:19.583Z,25.58
2022-12-22T01:33:23.524Z,24.88
2022-12-22T01:36:27.659Z,25.73
2022-12-22T01:39:31.614Z,24.30
2022-12-22T01:42:35.376Z,23.63
2022-12-22T01:45:46.193Z,24.45
2022-12-22T01:48:51.230Z,23.38
2022-12-22T01:51:55.137Z,22.50
2022-12-22T01:54:59.671Z,23.98
2022-12-22T01:58:03.733Z,27.33
2022-12-22T02:01:07.331Z,29.60
2022-12-22T02:04:11.229Z,27.23
2022-12-22T02:07:25.294Z,28.02
2022-12-22T02:10:50.858Z,26.63
2022-12-22T02:14:18.240Z,27.40
2022-12-22T02:17:47.559Z,26.23
2022-12-22T02:20:57.890Z,25.45
2022-12-22T02:24:15.445Z,24.95
2022-12-22T02:27:21.193Z,24.70
2022-12-22T02:30:27.043Z,24.83
2022-12-22T02:33:31.493Z,24.88
2022-12-22T02:37:12.772Z,26.13
2022-12-22T02:40:28.841Z,26.45
2022-12-22T02:43:48.738Z,27.27
2022-12-22T02:47:17.663Z,28.05
2022-12-22T02:50:34.431Z,27.13
2022-12-22T02:53:39.340Z,26.65
2022-12-22T02:56:43.880Z,25.38
2022-12-22T02:59:47.833Z,25.05
2022-12-22T03:02:52.026Z,25.98
2022-12-22T03:05:55.990Z,25.75
2022-12-22T03:09:00.176Z,26.70
2022-12-22T03:12:03.832Z,27.77
2022-12-22T03:15:07.795Z,27.05
2022-12-22T03:18:11.401Z,26.02
2022-12-22T03:21:16.418Z,25.90
2022-12-22T03:24:19.949Z,26.33
2022-12-22T03:27:05.353Z,29.73
2022-12-22T03:29:50.592Z,29.40
2022-12-22T03:32:36.198Z,33.60
2022-12-22T03:35:21.412Z,28.33
2022-12-22T03:38:06.960Z,27.38
2022-12-22T03:40:52.395Z,28.50
2022-12-22T03:44:06.890Z,29.08
2022-12-22T03:46:52.166Z,29.35
2022-12-22T03:49:37.832Z,33.05
2022-12-22T03:52:23.268Z,34.20
2022-12-22T03:55:08.964Z,31.05
2022-12-22T03:57:54.068Z,27.95
2022-12-22T04:00:39.455Z,29.58
2022-12-22T04:03:24.671Z,29.08
2022-12-22T04:06:10.139Z,28.42
2022-12-22T04:08:55.433Z,27.58
2022-12-22T04:11:59.468Z,27.13
2022-12-22T04:14:44.740Z,27.90
2022-12-22T04:17:30.161Z,27.85
2022-12-22T04:20:15.695Z,26.63
2022-12-22T04:23:01.318Z,26.17
2022-12-22T04:25:46.326Z,30.00
2022-12-22T04:28:32.350Z,30.30
2022-12-22T04:31:18.327Z,30.02
2022-12-22T04:34:03.834Z,32.00
2022-12-22T04:36:49.115Z,32.83
2022-12-22T04:39:34.576Z,33.15
2022-12-22T04:42:20.134Z,35.20
2022-12-22T04:45:06.100Z,34.53
2022-12-22T04:47:51.613Z,41.15
2022-12-22T04:50:37.035Z,41.67
2022-12-22T04:53:23.502Z,48.70
2022-12-22T04:56:09.008Z,43.60
2022-12-22T04:58:54.084Z,36.88
2022-12-22T05:01:39.959Z,37.28
2022-12-22T05:04:25.413Z,35.63
2022-12-22T05:07:10.825Z,31.65
2022-12-22T05:09:56.391Z,29.55
2022-12-22T05:12:56.784Z,27.77
2022-12-22T05:15:42.020Z,28.17
2022-12-22T05:18:27.293Z,25.98
2022-12-22T05:21:15.562Z,25.08
2022-12-22T05:24:00.934Z,23.30
2022-12-22T05:26:46.204Z,25.67
2022-12-22T05:29:31.700Z,23.48
2022-12-22T05:32:17.267Z,24.88
2022-12-22T05:35:03.836Z,22.15
2022-12-22T05:37:49.285Z,22.80
2022-12-22T05:40:34.695Z,21.45
2022-12-22T05:43:20.034Z,23.13
2022-12-22T05:46:08.565Z,26.05
2022-12-22T05:48:53.760Z,25.38
2022-12-22T05:51:39.236Z,25.83
2022-12-22T05:54:24.461Z,27.45
2022-12-22T05:57:10.037Z,32.67
2022-12-22T05:59:55.689Z,28.63
2022-12-22T06:02:42.333Z,26.90
2022-12-22T06:05:27.802Z,27.58
2022-12-22T06:08:13.204Z,30.40
2022-12-22T06:10:58.816Z,28.52
2022-12-22T06:13:45.394Z,27.42
2022-12-22T06:16:30.675Z,29.40
2022-12-22T06:19:15.966Z,36.03
2022-12-22T06:22:01.306Z,32.90
2022-12-22T06:24:46.806Z,33.75
2022-12-22T06:27:32.133Z,29.08
2022-12-22T06:30:17.657Z,29.52
2022-12-22T06:33:03.623Z,29.13
2022-12-22T06:35:53.972Z,28.25
2022-12-22T06:38:44.017Z,24.85
2022-12-22T06:41:47.958Z,24.63
2022-12-22T06:44:33.451Z,27.27
2022-12-22T06:47:18.739Z,27.77
2022-12-22T06:50:04.674Z,34.17
2022-12-22T06:52:50.394Z,33.05
2022-12-22T06:55:36.342Z,30.85
2022-12-22T06:58:21.880Z,29.45
2022-12-22T07:01:07.273Z,30.10
2022-12-22T07:03:52.779Z,31.25
2022-12-22T07:06:38.093Z,29.83
2022-12-22T07:09:23.488Z,27.33
2022-12-22T07:12:08.842Z,30.42
2022-12-22T07:14:54.203Z,27.73
2022-12-22T07:17:41.489Z,28.25
2022-12-22T07:20:26.768Z,30.77
2022-12-22T07:23:12.476Z,26.25
2022-12-22T07:25:58.268Z,30.45
2022-12-22T07:28:43.584Z,31.52
2022-12-22T07:31:28.987Z,26.58
2022-12-22T07:34:14.432Z,23.75
2022-12-22T07:36:59.858Z,21.13
2022-12-22T07:39:45.273Z,20.63
2022-12-22T07:42:45.957Z,18.92
2022-12-22T07:45:31.305Z,17.30
2022-12-22T07:48:35.422Z,15.60
2022-12-22T07:51:20.696Z,15.13
2022-12-22T07:54:07.953Z,13.98
2022-12-22T07:56:53.293Z,15.45
2022-12-22T07:59:38.652Z,15.30
2022-12-22T08:02:24.205Z,13.90
2022-12-22T08:05:10.330Z,18.05
2022-12-22T08:07:55.695Z,13.52
2022-12-22T08:10:41.196Z,13.48
2022-12-22T08:13:26.714Z,13.73
2022-12-22T08:16:13.888Z,13.02
2022-12-22T08:18:59.049Z,13.27
2022-12-22T08:21:52.098Z,11.23
2022-12-22T08:24:37.905Z,11.32
2022-12-22T08:27:49.190Z,11.25
2022-12-22T08:30:34.798Z,11.30
2022-12-22T08:33:20.425Z,10.25
2022-12-22T08:36:08.471Z,10.50
2022-12-22T08:38:55.403Z,11.10
2022-12-22T08:41:52.700Z,10.05
2022-12-22T08:44:41.209Z,12.18
2022-12-22T08:47:26.489Z,12.15
2022-12-22T08:50:11.914Z,10.77
2022-12-22T08:53:05.406Z,12.82
2022-12-22T08:55:53.092Z,9.90
2022-12-22T08:58:40.085Z,9.65
2022-12-22T09:01:25.359Z,11.32
2022-12-22T09:04:13.697Z,8.70
2022-12-22T09:06:58.927Z,12.18
2022-12-22T09:09:45.253Z,9.45
2022-12-22T09:12:31.081Z,9.73
2022-12-22T09:15:18.221Z,8.52
2022-12-22T09:18:03.761Z,8.85
2022-12-22T09:20:55.661Z,10.15
2022-12-22T09:23:41.213Z,7.80
2022-12-22T09:26:28.397Z,8.60
2022-12-22T09:29:15.503Z,8.90
2022-12-22T09:32:01.296Z,7.78
2022-12-22T09:34:46.746Z,7.05
2022-12-22T09:37:31.915Z,8.05
2022-12-22T09:40:21.512Z,5.95
2022-12-22T09:43:06.940Z,6.47
2022-12-22T09:45:52.466Z,7.55
2022-12-22T09:48:37.963Z,8.05
2022-12-22T09:51:27.189Z,6.75
2022-12-22T09:54:13.841Z,7.43
2022-12-22T09:56:59.603Z,7.55
2022-12-22T09:59:44.909Z,9.05
2022-12-22T10:02:43.916Z,8.45
2022-12-22T10:05:45.326Z,6.68
2022-12-22T10:08:35.111Z,5.57
2022-12-22T10:11:20.650Z,6.35
2022-12-22T10:14:06.396Z,6.32
2022-12-22T10:17:38.495Z,5.68
2022-12-22T10:20:27.586Z,6.10
2022-12-22T10:23:27.042Z,4.13
2022-12-22T10:26:30.872Z,7.00
2022-12-22T10:29:18.472Z,5.97
2022-12-22T10:32:13.033Z,8.27
2022-12-22T10:34:59.732Z,7.85
2022-12-22T10:37:45.112Z,6.55
2022-12-22T10:40:33.411Z,4.90
2022-12-22T10:43:24.625Z,7.75
2022-12-22T10:46:10.038Z,8.13
2022-12-22T10:49:10.077Z,6.25
2022-12-22T10:52:10.456Z,7.15
2022-12-22T10:55:22.962Z,8.00
2022-12-22T10:58:11.400Z,7.85
2022-12-22T11:01:04.884Z,6.95
2022-12-22T11:03:50.593Z,9.52
2022-12-22T11:06:37.359Z,8.70
2022-12-22T11:09:33.682Z,6.18
2022-12-22T11:12:24.999Z,5.38
2022-12-22T11:15:35.517Z,9.32
2022-12-22T11:18:37.734Z,7.97
2022-12-22T11:21:41.667Z,6.65
2022-12-22T11:25:04.526Z,8.00
2022-12-22T11:28:07.438Z,9.88
2022-12-22T11:31:35.162Z,5.82
2022-12-22T11:34:51.833Z,8.73
2022-12-22T11:37:48.904Z,9.00
2022-12-22T11:40:45.639Z,5.60
2022-12-22T11:43:57.986Z,5.85
2022-12-22T11:47:00.360Z,5.35
2022-12-22T11:50:57.592Z,4.97
2022-12-22T11:53:55.708Z,7.63
2022-12-22T11:56:45.085Z,7.05
2022-12-22T11:59:54.607Z,6.80
2022-12-22T12:03:04.867Z,5.97
2022-12-22T12:06:05.445Z,5.75
2022-12-22T12:09:24.339Z,4.95
2022-12-22T12:12:20.946Z,5.13
2022-12-22T12:15:44.780Z,5.05
2022-12-22T12:18:56.557Z,4.10
2022-12-22T12:21:57.160Z,5.57
2022-12-22T12:25:01.685Z,6.40
2022-12-22T12:28:09.969Z,6.50
2022-12-22T12:30:58.464Z,8.10
2022-12-22T12:33:51.166Z,9.48
2022-12-22T12:39:34.606Z,5.97
2022-12-22T12:42:33.554Z,5.07
2022-12-22T12:45:38.556Z,7.00
2022-12-22T12:48:24.419Z,7.93
2022-12-22T12:51:46.382Z,6.80
2022-12-22T12:54:43.548Z,8.25
2022-12-22T12:57:44.991Z,8.60
2022-12-22T13:00:33.674Z,10.40
2022-12-22T13:04:00.986Z,10.73
2022-12-22T13:06:50.199Z,10.48
2022-12-22T13:10:18.585Z,11.32
2022-12-22T13:13:04.298Z,11.73
2022-12-22T13:16:12.117Z,13.02
2022-12-22T13:18:59.880Z,12.60
2022-12-22T13:21:54.680Z,13.80
2022-12-22T13:24:49.045Z,11.55
2022-12-22T13:27:36.875Z,13.05
2022-12-22T13:30:22.425Z,11.32
2022-12-22T13:33:12.502Z,11.93
2022-12-22T13:35:59.488Z,10.85
2022-12-22T13:38:44.865Z,10.10
2022-12-22T13:41:32.337Z,11.90
2022-12-22T13:44:21.078Z,11.40
2022-12-22T13:47:13.722Z,9.02
2022-12-22T13:50:08.830Z,9.35
2022-12-22T13:52:57.039Z,12.13
2022-12-22T13:55:47.751Z,9.77
2022-12-22T13:58:38.984Z,10.77
2022-12-22T14:01:24.842Z,9.75
2022-12-22T14:04:13.644Z,11.75
2022-12-22T14:07:10.907Z,9.68
2022-12-22T14:09:56.996Z,11.23
2022-12-22T14:12:46.048Z,10.75
2022-12-22T14:15:31.356Z,10.68
2022-12-22T14:18:21.364Z,10.88
2022-12-22T14:21:07.631Z,10.50
2022-12-22T14:23:53.195Z,9.27
2022-12-22T14:26:38.760Z,14.38
2022-12-22T14:29:28.431Z,11.45
2022-12-22T14:32:37.127Z,12.70
2022-12-22T14:35:22.706Z,13.23
2022-12-22T14:38:19.250Z,16.33
2022-12-22T14:41:31.491Z,17.08
2022-12-22T14:44:26.620Z,20.77
2022-12-22T14:47:12.073Z,19.67
2022-12-22T14:50:13.930Z,23.40
2022-12-22T14:53:01.096Z,17.83
2022-12-22T14:55:50.293Z,21.80
2022-12-22T14:58:40.173Z,21.48
2022-12-22T15:01:30.532Z,21.75
2022-12-22T15:04:20.383Z,20.55
2022-12-22T15:07:30.076Z,18.70
2022-12-22T15:10:19.965Z,20.27
2022-12-22T15:13:08.017Z,20.63
2022-12-22T15:15:53.807Z,18.90
2022-12-22T15:18:39.175Z,20.40
2022-12-22T15:21:24.227Z,20.30
2022-12-22T15:24:15.544Z,22.45
2022-12-22T15:27:00.568Z,24.02
2022-12-22T15:29:46.035Z,22.25
2022-12-22T15:32:37.592Z,21.60
2022-12-22T15:35:32.655Z,18.50
2022-12-22T15:38:20.873Z,22.83
2022-12-22T15:41:06.892Z,22.15
2022-12-22T15:43:59.618Z,20.45
2022-12-22T15:46:58.962Z,20.25
2022-12-22T15:49:44.298Z,21.30
2022-12-22T15:52:31.660Z,22.23
2022-12-22T15:55:18.127Z,25.65
2022-12-22T15:58:03.675Z,22.60
2022-12-22T16:00:49.578Z,22.92
2022-12-22T16:03:34.934Z,24.20
2022-12-22T16:06:20.042Z,23.60
2022-12-22T16:09:18.369Z,26.60
2022-12-22T16:12:10.465Z,29.20
2022-12-22T16:14:57.536Z,33.58
2022-12-22T16:17:43.045Z,31.25
2022-12-22T16:20:38.000Z,33.70
2022-12-22T16:23:25.791Z,35.50
2022-12-22T16:26:17.670Z,36.38
2022-12-22T16:29:02.891Z,34.00
2022-12-22T16:31:49.681Z,31.92
2022-12-22T16:34:35.161Z,37.80
2022-12-22T16:37:20.500Z,35.05
2022-12-22T16:40:06.612Z,41.22
2022-12-22T16:46:11.959Z,38.35
2022-12-22T16:48:59.823Z,38.22
2022-12-22T16:51:49.469Z,38.08
2022-12-22T16:54:34.671Z,40.47
2022-12-22T16:57:20.143Z,38.88
2022-12-22T17:00:06.525Z,40.45
2022-12-22T17:02:56.166Z,39.60
2022-12-22T17:05:48.764Z,37.92
2022-12-22T17:08:39.336Z,38.85
2022-12-22T17:11:26.028Z,37.55
2022-12-22T17:14:16.912Z,34.45
2022-12-22T17:17:02.359Z,34.75
2022-12-22T17:19:47.826Z,42.05
2022-12-22T17:22:34.260Z,41.03
2022-12-22T17:25:23.649Z,37.67
2022-12-22T17:28:12.284Z,39.42
2022-12-22T17:30:57.530Z,35.72
2022-12-22T17:33:43.051Z,37.83
2022-12-22T17:36:33.173Z,33.88
2022-12-22T17:39:22.958Z,35.92
2022-12-22T17:42:22.714Z,33.30
2022-12-22T17:45:17.546Z,32.22
2022-12-22T17:48:02.892Z,35.08
2022-12-22T17:50:49.682Z,34.78
2022-12-22T17:53:40.751Z,36.45
2022-12-22T17:56:27.560Z,35.33
2022-12-22T17:59:12.986Z,30.90
2022-12-22T18:01:58.887Z,30.02
2022-12-22T18:04:45.288Z,29.67
2022-12-22T18:07:30.494Z,32.58
2022-12-22T18:10:21.895Z,30.00
2022-12-22T18:13:16.693Z,31.33
2022-12-22T18:16:02.240Z,28.13
2022-12-22T18:18:47.834Z,27.10
2022-12-22T18:21:33.463Z,27.25
2022-12-22T18:24:19.316Z,26.23
2022-12-22T18:27:04.515Z,24.10
2022-12-22T18:29:49.809Z,25.55
2022-12-22T18:32:35.176Z,27.17
2022-12-22T18:35:23.626Z,25.50
2022-12-22T18:38:27.160Z,25.35
2022-12-22T18:41:18.638Z,22.75
2022-12-22T18:44:04.313Z,21.40
2022-12-22T18:46:50.005Z,19.40
2022-12-22T18:49:35.398Z,21.10
2022-12-22T18:52:23.474Z,19.42
2022-12-22T18:55:19.340Z,18.40
2022-12-22T18:58:05.146Z,17.48
2022-12-22T19:00:51.812Z,16.98
2022-12-22T19:03:37.447Z,17.77
2022-12-22T19:06:23.541Z,14.88
2022-12-22T19:09:15.489Z,15.63
2022-12-22T19:12:01.117Z,15.20
2022-12-22T19:14:50.664Z,14.77
2022-12-22T19:17:36.002Z,14.15
2022-12-22T19:20:23.352Z,14.88
2022-12-22T19:23:12.678Z,14.68
2022-12-22T19:26:08.579Z,13.60
2022-12-22T19:28:57.178Z,13.25
2022-12-22T19:31:43.573Z,19.10
2022-12-22T19:34:28.910Z,16.65
2022-12-22T19:37:14.311Z,15.35
2022-12-22T19:40:00.094Z,17.63
2022-12-22T19:42:47.429Z,16.48
2022-12-22T19:45:36.941Z,16.08
2022-12-22T19:48:24.915Z,16.73
2022-12-22T19:51:14.545Z,17.05
2022-12-22T19:56:52.353Z,18.73
2022-12-22T19:59:40.963Z,16.58
2022-12-22T20:02:32.441Z,15.77
2022-12-22T20:05:23.732Z,16.65
2022-12-22T20:08:09.529Z,18.03
2022-12-22T20:10:58.819Z,18.48
2022-12-22T20:13:45.969Z,17.70
2022-12-22T20:16:30.978Z,16.63
2022-12-22T20:19:16.485Z,16.13
2022-12-22T20:22:02.044Z,16.60
2022-12-22T20:24:49.610Z,16.52
2022-12-22T20:27:35.138Z,15.93
2022-12-22T20:30:24.692Z,16.83
2022-12-22T20:33:10.198Z,15.05
2022-12-22T20:35:57.820Z,14.40
2022-12-22T20:38:43.932Z,15.98
2022-12-22T20:41:29.335Z,17.55
2022-12-22T20:44:14.509Z,17.65
2022-12-22T20:47:00.096Z,18.25
2022-12-22T20:49:46.125Z,22.27
2022-12-22T20:52:31.138Z,19.48
2022-12-22T20:55:17.928Z,20.73
2022-12-22T20:58:11.828Z,21.40
2022-12-22T21:00:59.420Z,22.48
2022-12-22T21:03:45.167Z,23.13
2022-12-22T21:06:37.697Z,25.50
2022-12-22T21:09:23.792Z,21.17
2022-12-22T21:12:09.277Z,27.35
2022-12-22T21:14:54.950Z,23.30
2022-12-22T21:17:44.833Z,24.05
2022-12-22T21:20:32.261Z,24.33
2022-12-22T21:23:17.219Z,26.52
2022-12-22T21:26:03.450Z,20.05
2022-12-22T21:28:49.185Z,22.48
2022-12-22T21:31:34.655Z,21.23
2022-12-22T21:34:20.881Z,18.73
2022-12-22T21:37:14.996Z,18.98
2022-12-22T21:40:00.519Z,17.48
2022-12-22T21:42:46.433Z,17.33
2022-12-22T21:45:31.836Z,15.98
2022-12-22T21:48:19.781Z,18.40
2022-12-22T21:51:05.126Z,17.70
2022-12-22T21:53:50.561Z,16.73
2022-12-22T21:56:35.921Z,14.63
2022-12-22T21:59:21.991Z,15.95
2022-12-22T22:02:17.892Z,20.35
2022-12-22T22:05:03.496Z,16.48
2022-12-22T22:07:48.935Z,21.13
2022-12-22T22:10:37.212Z,17.95
2022-12-22T22:13:22.298Z,15.50
2022-12-22T22:16:09.972Z,12.38
2022-12-22T22:18:55.594Z,12.15
2022-12-22T22:21:41.074Z,15.20
2022-12-22T22:24:26.356Z,13.75
2022-12-22T22:27:11.754Z,13.63
2022-12-22T22:29:57.365Z,14.27
2022-12-22T22:32:43.062Z,12.02
2022-12-22T22:35:28.381Z,15.25
2022-12-22T22:38:15.910Z,14.32
2022-12-22T22:41:01.525Z,16.45
2022-12-22T22:43:47.102Z,14.32
2022-12-22T22:46:32.743Z,15.75
2022-12-22T22:49:21.366Z,12.65
2022-12-22T22:52:10.001Z,13.63
2022-12-22T22:54:55.426Z,14.05
2022-12-22T22:57:41.628Z,15.32
2022-12-22T23:00:26.723Z,16.15
2022-12-22T23:03:12.090Z,16.42
2022-12-22T23:06:12.717Z,14.80
2022-12-22T23:08:58.054Z,16.85
2022-12-22T23:11:43.583Z,13.38
2022-12-22T23:14:29.190Z,13.95
2022-12-22T23:17:14.582Z,13.85
2022-12-22T23:20:00.179Z,13.38
2022-12-22T23:22:45.745Z,15.55
2022-12-22T23:25:30.996Z,13.13
2022-12-22T23:28:17.376Z,10.80
2022-12-22T23:31:02.647Z,12.35
2022-12-22T23:33:48.139Z,14.48
2022-12-22T23:36:33.533Z,13.50
2022-12-22T23:39:18.922Z,11.45
2022-12-22T23:42:04.450Z,12.18
2022-12-22T23:44:49.808Z,12.90
2022-12-22T23:47:35.277Z,13.38
2022-12-22T23:50:20.785Z,13.60
2022-12-22T23:53:06.443Z,13.95
2022-12-22T23:55:51.765Z,13.77
2022-12-22T23:58:37.251Z,15.55
